createdAt,value
2023-01-21T00:01:24.465Z,1.13
2023-01-21T00:03:52.782Z,0.60
2023-01-21T00:06:21.115Z,0.50
2023-01-21T00:08:49.410Z,0.93
2023-01-21T00:11:17.864Z,0.50
2023-01-21T00:13:46.334Z,0.63
2023-01-21T00:16:16.113Z,0.30
2023-01-21T00:18:44.503Z,0.40
2023-01-21T00:21:12.882Z,0.40
2023-01-21T00:23:41.538Z,0.50
2023-01-21T00:26:12.706Z,0.87
2023-01-21T00:28:43.864Z,0.53
2023-01-21T00:31:12.920Z,0.50
2023-01-21T00:33:42.683Z,0.40
2023-01-21T00:36:13.299Z,0.60
2023-01-21T00:38:41.861Z,1.33
2023-01-21T00:41:11.559Z,0.93
2023-01-21T00:43:40.517Z,1.40
2023-01-21T00:46:09.415Z,0.50
2023-01-21T00:48:38.314Z,1.13
2023-01-21T00:51:08.201Z,0.50
2023-01-21T00:53:38.307Z,0.90
2023-01-21T00:56:09.147Z,0.40
2023-01-21T00:58:37.961Z,0.30
2023-01-21T01:01:09.738Z,0.60
2023-01-21T01:03:39.215Z,0.70
2023-01-21T01:06:11.874Z,0.70
2023-01-21T01:08:40.170Z,2.77
2023-01-21T01:11:08.529Z,0.30
2023-01-21T01:13:37.940Z,0.77
2023-01-21T01:16:06.825Z,0.53
2023-01-21T01:18:36.913Z,0.80
2023-01-21T01:21:06.842Z,0.90
2023-01-21T01:23:36.649Z,0.20
2023-01-21T01:26:08.194Z,0.90
2023-01-21T01:28:36.710Z,0.73
2023-01-21T01:31:07.002Z,2.17
2023-01-21T01:33:35.950Z,1.47
2023-01-21T01:36:05.665Z,0.70
2023-01-21T01:38:34.945Z,0.67
2023-01-21T01:41:07.508Z,0.40
2023-01-21T01:43:54.781Z,0.70
2023-01-21T01:46:23.753Z,1.20
2023-01-21T01:48:56.793Z,0.87
2023-01-21T01:51:32.742Z,1.50
2023-01-21T01:54:01.889Z,0.60
2023-01-21T01:56:32.197Z,0.83
2023-01-21T01:59:00.612Z,0.80
2023-01-21T02:01:28.952Z,0.70
2023-01-21T02:04:00.987Z,0.60
2023-01-21T02:06:29.468Z,1.40
2023-01-21T02:08:58.368Z,0.83
2023-01-21T02:11:26.704Z,0.40
2023-01-21T02:13:59.072Z,0.50
2023-01-21T02:16:42.910Z,0.80
2023-01-21T02:19:42.935Z,0.37
2023-01-21T02:22:19.221Z,0.77
2023-01-21T02:25:23.867Z,0.47
2023-01-21T02:28:04.265Z,0.70
2023-01-21T02:30:46.910Z,0.90
2023-01-21T02:33:47.866Z,0.33
2023-01-21T02:36:38.548Z,0.90
2023-01-21T02:39:15.548Z,0.37
2023-01-21T02:41:58.076Z,0.60
2023-01-21T02:44:36.280Z,0.30
2023-01-21T02:47:15.978Z,0.87
2023-01-21T02:49:48.322Z,0.30
2023-01-21T02:52:21.872Z,0.30
2023-01-21T02:54:53.279Z,0.50
2023-01-21T02:57:43.330Z,0.40
2023-01-21T03:00:18.723Z,0.77
2023-01-21T03:03:22.667Z,0.40
2023-01-21T03:06:19.725Z,0.63
2023-01-21T03:08:55.312Z,0.97
2023-01-21T03:11:24.755Z,0.40
2023-01-21T03:14:13.453Z,0.30
2023-01-21T03:16:58.657Z,0.43
2023-01-21T03:19:34.239Z,0.43
2023-01-21T03:22:10.510Z,0.30
2023-01-21T03:24:39.809Z,0.47
2023-01-21T03:27:10.162Z,0.20
2023-01-21T03:29:42.407Z,0.20
2023-01-21T03:32:14.887Z,0.40
2023-01-21T03:34:47.004Z,0.20
2023-01-21T03:37:22.276Z,0.30
2023-01-21T03:39:57.061Z,0.20
2023-01-21T03:42:25.507Z,0.33
2023-01-21T03:44:54.040Z,2.33
2023-01-21T03:47:28.886Z,0.73
2023-01-21T03:50:02.040Z,0.40
2023-01-21T03:52:31.952Z,0.87
2023-01-21T03:55:00.543Z,1.03
2023-01-21T03:57:28.864Z,0.37
2023-01-21T03:59:57.450Z,0.40
2023-01-21T04:02:25.761Z,0.40
2023-01-21T04:04:54.264Z,0.60
2023-01-21T04:07:22.587Z,0.30
2023-01-21T04:09:52.327Z,0.60
2023-01-21T04:12:20.719Z,1.30
2023-01-21T04:14:48.986Z,1.17
2023-01-21T04:17:17.252Z,0.30
2023-01-21T04:19:45.590Z,0.70
2023-01-21T04:22:13.922Z,0.30
2023-01-21T04:24:42.217Z,0.60
2023-01-21T04:27:11.906Z,1.53
2023-01-21T04:29:40.123Z,0.30
2023-01-21T04:32:08.364Z,0.30
2023-01-21T04:34:36.723Z,0.53
2023-01-21T04:37:05.019Z,1.13
2023-01-21T04:39:33.271Z,0.40
2023-01-21T04:42:01.858Z,0.50
2023-01-21T04:44:31.598Z,0.37
2023-01-21T04:46:59.870Z,0.20
2023-01-21T04:49:28.186Z,0.20
2023-01-21T04:51:56.948Z,0.27
2023-01-21T04:54:27.659Z,0.57
2023-01-21T04:56:56.061Z,0.37
2023-01-21T04:59:24.318Z,0.57
2023-01-21T05:01:54.111Z,0.63
2023-01-21T05:04:22.432Z,0.20
2023-01-21T05:06:50.740Z,1.10
2023-01-21T05:09:19.137Z,2.20
2023-01-21T05:11:47.419Z,1.33
2023-01-21T05:14:15.799Z,0.67
2023-01-21T05:16:44.164Z,0.50
2023-01-21T05:19:13.979Z,0.50
2023-01-21T05:21:42.387Z,0.30
2023-01-21T05:24:11.026Z,0.40
2023-01-21T05:26:39.293Z,0.47
2023-01-21T05:29:07.510Z,1.20
2023-01-21T05:31:35.891Z,0.50
2023-01-21T05:34:04.272Z,0.60
2023-01-21T05:36:34.034Z,1.57
2023-01-21T05:39:02.546Z,0.80
2023-01-21T05:41:31.397Z,0.40
2023-01-21T05:44:02.132Z,0.30
2023-01-21T05:46:30.457Z,0.60
2023-01-21T05:48:58.813Z,0.43
2023-01-21T05:51:27.213Z,0.30
2023-01-21T05:53:56.955Z,0.43
2023-01-21T05:56:25.257Z,0.73
2023-01-21T05:58:53.618Z,0.50
2023-01-21T06:01:22.026Z,0.27
2023-01-21T06:03:50.353Z,0.40
2023-01-21T06:06:18.684Z,0.20
2023-01-21T06:08:47.140Z,0.40
2023-01-21T06:11:16.886Z,0.50
2023-01-21T06:13:45.097Z,0.60
2023-01-21T06:16:13.499Z,0.20
2023-01-21T06:18:41.821Z,0.60
2023-01-21T06:21:10.081Z,0.50
2023-01-21T06:23:38.431Z,0.33
2023-01-21T06:26:07.010Z,0.73
2023-01-21T06:28:36.761Z,0.30
2023-01-21T06:31:05.280Z,0.20
2023-01-21T06:33:33.648Z,1.30
2023-01-21T06:36:01.963Z,0.40
2023-01-21T06:38:30.248Z,0.30
2023-01-21T06:40:58.698Z,0.60
2023-01-21T06:43:27.055Z,1.13
2023-01-21T06:45:56.684Z,1.03
2023-01-21T06:48:25.032Z,0.53
2023-01-21T06:50:53.437Z,0.40
2023-01-21T06:53:21.803Z,0.40
2023-01-21T06:55:50.010Z,1.90
2023-01-21T06:58:18.327Z,0.47
2023-01-21T07:00:46.606Z,0.30
2023-01-21T07:03:19.434Z,0.97
2023-01-21T07:05:47.781Z,2.33
2023-01-21T07:08:16.021Z,0.40
2023-01-21T07:10:46.850Z,1.10
2023-01-21T07:13:16.049Z,2.33
2023-01-21T07:15:44.416Z,1.07
2023-01-21T07:18:12.771Z,0.30
2023-01-21T07:20:42.680Z,0.50
2023-01-21T07:23:10.931Z,0.73
2023-01-21T07:25:39.237Z,0.40
2023-01-21T07:28:07.525Z,2.40
2023-01-21T07:30:35.871Z,0.50
2023-01-21T07:33:07.155Z,1.43
2023-01-21T07:35:35.421Z,2.10
2023-01-21T07:38:07.828Z,0.53
2023-01-21T07:40:36.228Z,1.43
2023-01-21T07:43:07.187Z,0.73
2023-01-21T07:45:35.547Z,0.90
2023-01-21T07:48:03.828Z,1.20
2023-01-21T07:50:32.060Z,2.33
2023-01-21T07:53:00.830Z,2.20
2023-01-21T07:55:30.900Z,1.80
2023-01-21T07:57:59.621Z,1.67
2023-01-21T08:00:30.480Z,1.13
2023-01-21T08:02:59.233Z,1.83
2023-01-21T08:05:27.875Z,3.37
2023-01-21T08:07:58.823Z,1.10
2023-01-21T08:10:27.515Z,1.77
2023-01-21T08:12:57.233Z,2.40
2023-01-21T08:15:25.576Z,1.33
2023-01-21T08:17:53.845Z,3.03
2023-01-21T08:20:22.192Z,1.97
2023-01-21T08:22:50.485Z,2.77
2023-01-21T08:25:19.483Z,0.50
2023-01-21T08:27:50.694Z,1.13
2023-01-21T08:30:20.607Z,1.37
2023-01-21T08:32:48.893Z,1.53
2023-01-21T08:35:17.456Z,2.07
2023-01-21T08:37:45.984Z,3.33
2023-01-21T08:40:14.660Z,2.37
2023-01-21T08:42:42.960Z,2.40
2023-01-21T08:45:15.107Z,1.60
2023-01-21T08:47:45.194Z,2.97
2023-01-21T08:50:13.637Z,3.13
2023-01-21T08:52:41.929Z,3.67
2023-01-21T08:55:10.672Z,3.57
2023-01-21T08:57:39.055Z,3.30
2023-01-21T09:00:08.463Z,2.03
2023-01-21T09:02:36.713Z,3.20
2023-01-21T09:05:07.515Z,1.90
2023-01-21T09:07:35.821Z,4.13
2023-01-21T09:10:06.024Z,3.03
2023-01-21T09:12:34.467Z,4.63
2023-01-21T09:15:02.701Z,2.50
2023-01-21T09:17:31.028Z,2.83
2023-01-21T09:20:01.544Z,2.37
2023-01-21T09:22:31.435Z,5.60
2023-01-21T09:24:59.939Z,3.90
2023-01-21T09:27:28.391Z,5.07
2023-01-21T09:29:57.144Z,4.10
2023-01-21T09:32:26.216Z,1.93
2023-01-21T09:34:54.466Z,2.60
2023-01-21T09:37:22.838Z,2.67
2023-01-21T09:39:54.357Z,3.97
2023-01-21T09:42:27.525Z,3.03
2023-01-21T09:44:58.761Z,3.67
2023-01-21T09:47:33.083Z,1.70
2023-01-21T09:50:06.745Z,4.37
2023-01-21T09:52:41.068Z,1.50
2023-01-21T09:55:18.596Z,2.13
2023-01-21T09:58:11.095Z,1.73
2023-01-21T10:00:45.059Z,2.10
2023-01-21T10:03:21.653Z,2.83
2023-01-21T10:06:16.861Z,1.13
2023-01-21T10:09:00.076Z,2.77
2023-01-21T10:11:46.262Z,1.87
2023-01-21T10:14:37.375Z,2.90
2023-01-21T10:17:10.688Z,4.13
2023-01-21T10:19:43.733Z,4.57
2023-01-21T10:22:15.634Z,2.10
2023-01-21T10:24:48.210Z,1.33
2023-01-21T10:27:23.428Z,0.53
2023-01-21T10:29:56.675Z,0.30
2023-01-21T10:32:28.509Z,1.57
2023-01-21T10:34:59.128Z,2.20
2023-01-21T10:37:37.103Z,1.20
2023-01-21T10:40:14.279Z,2.03
2023-01-21T10:42:51.651Z,1.40
2023-01-21T10:45:33.600Z,2.00
2023-01-21T10:48:12.329Z,1.50
2023-01-21T10:50:49.616Z,2.50
2023-01-21T10:53:27.143Z,0.70
2023-01-21T10:56:22.517Z,1.60
2023-01-21T10:58:56.569Z,1.70
2023-01-21T11:01:29.625Z,1.20
2023-01-21T11:04:03.723Z,2.20
2023-01-21T11:06:34.383Z,1.20
2023-01-21T11:09:06.431Z,1.13
2023-01-21T11:11:37.660Z,0.53
2023-01-21T11:14:07.346Z,0.50
2023-01-21T11:16:38.419Z,0.70
2023-01-21T11:19:08.844Z,0.60
2023-01-21T11:21:40.172Z,2.30
2023-01-21T11:24:23.152Z,1.57
2023-01-21T11:26:53.860Z,2.43
2023-01-21T11:29:25.573Z,1.77
2023-01-21T11:32:03.963Z,1.83
2023-01-21T11:34:32.752Z,2.63
2023-01-21T11:37:04.158Z,2.47
2023-01-21T11:39:35.614Z,2.93
2023-01-21T11:42:08.499Z,3.10
2023-01-21T11:44:51.144Z,2.30
2023-01-21T11:47:31.179Z,1.90
2023-01-21T11:50:11.328Z,3.07
2023-01-21T11:52:39.677Z,1.90
2023-01-21T11:55:19.903Z,3.20
2023-01-21T11:57:53.693Z,1.87
2023-01-21T12:00:27.259Z,3.57
2023-01-21T12:02:59.760Z,3.57
2023-01-21T12:05:32.785Z,2.43
2023-01-21T12:08:02.141Z,3.57
2023-01-21T12:10:34.142Z,2.27
2023-01-21T12:13:17.491Z,3.07
2023-01-21T12:16:16.588Z,2.13
2023-01-21T12:19:16.835Z,3.20
2023-01-21T12:22:10.571Z,4.40
2023-01-21T12:24:56.748Z,1.40
2023-01-21T12:27:34.097Z,2.27
2023-01-21T12:30:17.632Z,2.83
2023-01-21T12:32:51.807Z,3.60
2023-01-21T12:35:28.584Z,1.87
2023-01-21T12:38:04.480Z,2.53
2023-01-21T12:40:35.533Z,2.43
2023-01-21T12:43:09.963Z,2.90
2023-01-21T12:45:44.888Z,3.60
2023-01-21T12:48:20.272Z,4.57
2023-01-21T12:50:54.145Z,4.70
2023-01-21T12:53:33.748Z,2.87
2023-01-21T12:56:19.371Z,3.37
2023-01-21T12:58:56.074Z,3.00
2023-01-21T13:01:41.164Z,1.73
2023-01-21T13:04:23.981Z,1.80
2023-01-21T13:06:58.283Z,0.70
2023-01-21T13:09:36.055Z,1.47
2023-01-21T13:12:12.275Z,1.20
2023-01-21T13:14:46.689Z,0.60
2023-01-21T13:17:20.296Z,0.87
2023-01-21T13:19:50.545Z,1.20
2023-01-21T13:22:32.941Z,2.53
2023-01-21T13:25:15.487Z,2.50
2023-01-21T13:27:53.242Z,1.07
2023-01-21T13:30:32.082Z,0.80
2023-01-21T13:33:34.973Z,0.60
2023-01-21T13:36:23.102Z,0.40
2023-01-21T13:38:57.441Z,1.07
2023-01-21T13:41:38.632Z,1.83
2023-01-21T13:44:37.705Z,0.60
2023-01-21T13:47:14.066Z,1.00
2023-01-21T13:50:05.724Z,1.77
2023-01-21T13:52:48.332Z,1.43
2023-01-21T13:55:31.804Z,3.03
2023-01-21T13:58:06.387Z,0.73
2023-01-21T14:00:42.512Z,2.70
2023-01-21T14:03:25.700Z,0.70
2023-01-21T14:06:00.415Z,2.03
2023-01-21T14:08:35.262Z,0.60
2023-01-21T14:11:12.241Z,1.73
2023-01-21T14:14:15.246Z,1.03
2023-01-21T14:17:35.805Z,1.30
2023-01-21T14:20:36.656Z,4.90
2023-01-21T14:23:44.605Z,3.27
2023-01-21T14:26:29.089Z,3.10
2023-01-21T14:29:07.054Z,1.80
2023-01-21T14:31:40.714Z,1.90
2023-01-21T14:34:18.748Z,6.20
2023-01-21T14:36:57.419Z,4.77
2023-01-21T14:39:39.576Z,3.77
2023-01-21T14:42:12.893Z,1.13
2023-01-21T14:44:45.990Z,4.10
2023-01-21T14:47:19.624Z,1.40
2023-01-21T14:49:50.249Z,1.27
2023-01-21T14:52:21.341Z,2.10
2023-01-21T14:54:50.950Z,2.43
2023-01-21T14:57:27.887Z,2.13
2023-01-21T15:00:05.939Z,3.37
2023-01-21T15:02:36.783Z,0.90
2023-01-21T15:05:18.389Z,1.20
2023-01-21T15:07:50.161Z,2.33
2023-01-21T15:10:25.369Z,3.00
2023-01-21T15:12:57.169Z,2.60
2023-01-21T15:15:33.130Z,3.87
2023-01-21T15:18:24.590Z,2.10
2023-01-21T15:20:58.026Z,0.53
2023-01-21T15:23:39.400Z,0.73
2023-01-21T15:26:36.602Z,1.23
2023-01-21T15:29:34.784Z,1.10
2023-01-21T15:32:28.834Z,0.50
2023-01-21T15:35:00.709Z,1.70
2023-01-21T15:37:31.790Z,2.30
2023-01-21T15:40:11.836Z,1.83
2023-01-21T15:42:50.996Z,2.43
2023-01-21T15:45:29.778Z,2.27
2023-01-21T15:48:25.403Z,1.80
2023-01-21T15:51:03.695Z,2.93
2023-01-21T15:53:56.704Z,1.13
2023-01-21T15:56:42.773Z,2.50
2023-01-21T15:59:29.339Z,5.13
2023-01-21T16:02:16.453Z,3.43
2023-01-21T16:04:59.421Z,2.50
2023-01-21T16:07:37.776Z,3.47
2023-01-21T16:10:17.412Z,4.40
2023-01-21T16:12:55.720Z,0.90
2023-01-21T16:15:37.965Z,2.93
2023-01-21T16:18:16.493Z,1.77
2023-01-21T16:20:48.316Z,1.17
2023-01-21T16:23:19.609Z,2.20
2023-01-21T16:25:49.504Z,1.57
2023-01-21T16:28:18.315Z,1.53
2023-01-21T16:30:56.422Z,3.67
2023-01-21T16:33:25.525Z,2.50
2023-01-21T16:35:57.469Z,4.80
2023-01-21T16:38:27.408Z,3.13
2023-01-21T16:41:22.646Z,3.37
2023-01-21T16:43:53.398Z,1.97
2023-01-21T16:46:27.089Z,2.33
2023-01-21T16:48:58.593Z,2.20
2023-01-21T16:51:30.991Z,0.87
2023-01-21T16:54:25.478Z,0.40
2023-01-21T16:56:56.801Z,0.53
2023-01-21T16:59:28.764Z,2.07
2023-01-21T17:02:00.962Z,0.73
2023-01-21T17:04:30.709Z,2.00
2023-01-21T17:07:00.446Z,1.53
2023-01-21T17:09:33.187Z,3.43
2023-01-21T17:12:06.626Z,2.30
2023-01-21T17:14:36.505Z,0.83
2023-01-21T17:17:09.597Z,0.80
2023-01-21T17:19:40.466Z,2.73
2023-01-21T17:22:15.699Z,2.47
2023-01-21T17:24:57.267Z,1.53
2023-01-21T17:27:26.552Z,1.23
2023-01-21T17:29:54.880Z,2.23
2023-01-21T17:32:32.368Z,2.00
2023-01-21T17:35:13.973Z,1.73
2023-01-21T17:37:45.190Z,1.17
2023-01-21T17:40:35.022Z,0.70
2023-01-21T17:43:16.483Z,2.53
2023-01-21T17:45:47.108Z,2.17
2023-01-21T17:48:25.102Z,6.40
2023-01-21T17:50:54.283Z,3.27
2023-01-21T17:53:27.611Z,2.33
2023-01-21T17:55:59.125Z,2.33
2023-01-21T17:58:49.039Z,2.57
2023-01-21T18:01:18.381Z,1.13
2023-01-21T18:03:48.225Z,1.40
2023-01-21T18:06:21.911Z,0.50
2023-01-21T18:08:51.124Z,1.43
2023-01-21T18:11:20.022Z,1.80
2023-01-21T18:13:48.752Z,1.50
2023-01-21T18:16:17.454Z,2.80
2023-01-21T18:18:47.243Z,0.87
2023-01-21T18:21:20.357Z,0.50
2023-01-21T18:23:49.070Z,0.70
2023-01-21T18:26:27.851Z,1.40
2023-01-21T18:28:56.152Z,1.87
2023-01-21T18:31:25.029Z,1.90
2023-01-21T18:33:57.680Z,1.07
2023-01-21T18:36:26.171Z,1.77
2023-01-21T18:38:54.515Z,2.00
2023-01-21T18:41:22.962Z,0.90
2023-01-21T18:43:51.207Z,3.03
2023-01-21T18:46:20.002Z,3.57
2023-01-21T18:48:48.325Z,1.03
2023-01-21T18:51:18.099Z,2.10
2023-01-21T18:53:46.425Z,2.13
2023-01-21T18:56:15.813Z,3.67
2023-01-21T18:58:44.402Z,2.63
2023-01-21T19:01:23.147Z,1.70
2023-01-21T19:03:55.903Z,1.97
2023-01-21T19:06:28.076Z,0.53
2023-01-21T19:08:56.611Z,1.60
2023-01-21T19:11:24.880Z,1.30
2023-01-21T19:13:53.247Z,1.17
2023-01-21T19:16:22.301Z,2.37
2023-01-21T19:18:50.654Z,2.50
2023-01-21T19:21:19.077Z,2.30
2023-01-21T19:23:48.829Z,1.17
2023-01-21T19:26:17.493Z,1.90
2023-01-21T19:28:46.088Z,2.33
2023-01-21T19:31:14.445Z,1.67
2023-01-21T19:33:47.245Z,2.80
2023-01-21T19:36:19.891Z,1.90
2023-01-21T19:38:54.426Z,2.43
2023-01-21T19:41:22.953Z,1.20
2023-01-21T19:43:51.698Z,1.20
2023-01-21T19:46:23.232Z,0.80
2023-01-21T19:48:53.754Z,1.10
2023-01-21T19:51:24.676Z,0.80
2023-01-21T19:53:54.438Z,0.90
2023-01-21T19:56:25.142Z,1.63
2023-01-21T19:58:53.724Z,2.40
2023-01-21T20:01:22.293Z,2.00
2023-01-21T20:03:59.711Z,0.70
2023-01-21T20:06:31.348Z,1.70
2023-01-21T20:09:02.268Z,1.17
2023-01-21T20:11:30.542Z,1.73
2023-01-21T20:13:58.957Z,3.37
2023-01-21T20:16:27.408Z,3.97
2023-01-21T20:18:56.456Z,4.43
2023-01-21T20:21:24.915Z,2.27
2023-01-21T20:23:53.230Z,2.80
2023-01-21T20:26:27.342Z,0.30
2023-01-21T20:28:55.810Z,0.57
2023-01-21T20:31:24.539Z,0.40
2023-01-21T20:33:52.976Z,0.37
2023-01-21T20:36:23.895Z,2.07
2023-01-21T20:38:53.668Z,1.03
2023-01-21T20:41:23.837Z,1.33
2023-01-21T20:43:52.080Z,1.00
2023-01-21T20:46:22.707Z,0.53
2023-01-21T20:48:51.823Z,1.47
2023-01-21T20:51:20.891Z,1.30
2023-01-21T20:53:49.436Z,1.43
2023-01-21T20:56:20.601Z,1.97
2023-01-21T20:58:50.450Z,1.03
2023-01-21T21:01:21.051Z,1.23
2023-01-21T21:03:49.809Z,0.80
2023-01-21T21:06:19.859Z,1.90
2023-01-21T21:08:50.234Z,1.47
2023-01-21T21:11:20.197Z,1.20
2023-01-21T21:13:52.572Z,0.80
2023-01-21T21:16:23.454Z,1.60
2023-01-21T21:18:52.206Z,2.10
2023-01-21T21:21:23.527Z,1.67
2023-01-21T21:23:52.790Z,0.60
2023-01-21T21:26:23.583Z,0.50
2023-01-21T21:28:59.426Z,0.40
2023-01-21T21:31:32.066Z,0.80
2023-01-21T21:34:00.523Z,1.07
2023-01-21T21:36:28.816Z,0.73
2023-01-21T21:38:57.116Z,0.97
2023-01-21T21:41:44.908Z,0.40
2023-01-21T21:44:14.788Z,0.50
2023-01-21T21:47:00.250Z,1.43
2023-01-21T21:49:28.855Z,0.43
2023-01-21T21:51:57.327Z,0.30
2023-01-21T21:54:25.692Z,0.63
2023-01-21T21:56:53.915Z,0.30
2023-01-21T21:59:23.624Z,0.20
2023-01-21T22:01:51.962Z,0.57
2023-01-21T22:04:21.372Z,1.03
2023-01-21T22:06:49.571Z,2.00
2023-01-21T22:09:17.856Z,0.20
2023-01-21T22:11:46.200Z,0.30
2023-01-21T22:14:14.545Z,0.63
2023-01-21T22:16:45.000Z,1.13
2023-01-21T22:19:13.497Z,0.80
2023-01-21T22:21:41.839Z,0.30
2023-01-21T22:24:11.129Z,0.40
2023-01-21T22:26:41.402Z,0.93
2023-01-21T22:29:09.784Z,0.30
2023-01-21T22:31:38.254Z,0.47
2023-01-21T22:34:07.967Z,0.70
2023-01-21T22:36:36.414Z,0.30
2023-01-21T22:39:04.904Z,0.40
2023-01-21T22:41:33.152Z,0.40
2023-01-21T22:44:01.400Z,0.20
2023-01-21T22:46:31.526Z,0.30
2023-01-21T22:49:00.095Z,0.70
2023-01-21T22:51:29.867Z,0.40
2023-01-21T22:54:00.286Z,0.30
2023-01-21T22:56:45.316Z,0.50
2023-01-21T22:59:16.900Z,0.30
2023-01-21T23:01:45.250Z,0.30
2023-01-21T23:04:14.952Z,0.20
2023-01-21T23:06:45.198Z,0.20
2023-01-21T23:09:15.708Z,0.37
2023-01-21T23:11:45.269Z,0.30
2023-01-21T23:14:13.869Z,0.20
2023-01-21T23:16:42.276Z,0.30
2023-01-21T23:19:10.585Z,0.30
2023-01-21T23:21:38.957Z,0.40
2023-01-21T23:24:09.219Z,0.70
2023-01-21T23:26:40.933Z,0.50
2023-01-21T23:29:09.211Z,0.70
2023-01-21T23:31:37.696Z,0.40
2023-01-21T23:34:06.020Z,0.37
2023-01-21T23:36:34.301Z,0.20
2023-01-21T23:39:02.551Z,0.20
2023-01-21T23:41:32.251Z,0.20
2023-01-21T23:44:01.508Z,0.50
2023-01-21T23:46:30.048Z,0.50
2023-01-21T23:48:58.377Z,1.33
2023-01-21T23:51:26.767Z,0.90
2023-01-21T23:53:55.070Z,0.30
2023-01-21T23:56:26.015Z,0.90
2023-01-21T23:58:55.783Z,0.93
